createdAt,value
2018-05-18T00:01:26.233Z,76.40
2018-05-18T00:03:54.478Z,75.40
2018-05-18T00:06:22.680Z,75.80
2018-05-18T00:08:51.693Z,75.90
2018-05-18T00:11:20.686Z,75.50
2018-05-18T00:13:48.994Z,75.50
2018-05-18T00:16:17.981Z,75.50
2018-05-18T00:18:46.217Z,75.40
2018-05-18T00:21:14.546Z,75.30
2018-05-18T00:23:42.736Z,75.30
2018-05-18T00:26:10.961Z,75.50
2018-05-18T00:28:39.212Z,75.10
2018-05-18T00:31:07.517Z,75.10
2018-05-18T00:33:36.510Z,76.00
2018-05-18T00:36:04.728Z,75.90
2018-05-18T00:38:32.952Z,76.70
2018-05-18T00:41:01.178Z,76.50
2018-05-18T00:43:29.472Z,81.30
2018-05-18T00:45:57.699Z,77.30
2018-05-18T00:48:25.921Z,75.40
2018-05-18T00:50:54.257Z,76.00
2018-05-18T00:53:22.534Z,77.00
2018-05-18T00:55:51.518Z,74.70
2018-05-18T00:58:19.741Z,74.80
2018-05-18T01:00:47.974Z,75.50
2018-05-18T01:03:16.185Z,76.50
2018-05-18T01:05:44.416Z,76.70
2018-05-18T01:08:12.655Z,76.90
2018-05-18T01:10:40.879Z,76.40
2018-05-18T01:13:09.888Z,75.50
2018-05-18T01:15:38.868Z,81.20
2018-05-18T01:18:07.080Z,80.90
2018-05-18T01:20:35.312Z,78.60
2018-05-18T01:23:03.530Z,76.30
2018-05-18T01:25:31.753Z,76.50
2018-05-18T01:27:59.972Z,76.70
2018-05-18T01:30:28.213Z,77.10
2018-05-18T01:32:57.410Z,76.30
2018-05-18T01:35:26.406Z,75.70
2018-05-18T01:37:56.132Z,76.90
2018-05-18T01:40:24.357Z,76.90
2018-05-18T01:42:52.587Z,77.10
2018-05-18T01:45:20.805Z,77.40
2018-05-18T01:47:49.801Z,77.80
2018-05-18T01:50:18.024Z,77.60
2018-05-18T01:52:46.241Z,77.00
2018-05-18T01:55:14.465Z,77.70
2018-05-18T01:57:42.721Z,77.10
2018-05-18T02:00:10.965Z,77.10
2018-05-18T02:02:39.184Z,77.30
2018-05-18T02:05:07.437Z,77.70
2018-05-18T02:07:36.433Z,79.20
2018-05-18T02:10:05.503Z,77.40
2018-05-18T02:12:33.646Z,77.40
2018-05-18T02:15:01.865Z,77.10
2018-05-18T02:17:30.869Z,77.90
2018-05-18T02:19:59.136Z,77.60
2018-05-18T02:22:28.113Z,77.60
2018-05-18T02:24:57.121Z,77.60
2018-05-18T02:27:26.117Z,77.50
2018-05-18T02:29:55.111Z,78.90
2018-05-18T02:32:23.326Z,78.50
2018-05-18T02:34:52.313Z,79.00
2018-05-18T02:37:20.528Z,79.00
2018-05-18T02:39:48.762Z,77.70
2018-05-18T02:42:17.013Z,77.00
2018-05-18T02:44:45.284Z,77.20
2018-05-18T02:47:14.278Z,78.30
2018-05-18T02:49:42.553Z,78.20
2018-05-18T02:52:10.787Z,77.00
2018-05-18T02:54:39.005Z,76.50
2018-05-18T02:57:07.232Z,78.00
2018-05-18T02:59:36.237Z,75.70
2018-05-18T03:02:05.251Z,76.70
2018-05-18T03:04:34.246Z,81.10
2018-05-18T03:07:02.469Z,80.70
2018-05-18T03:09:30.726Z,76.80
2018-05-18T03:11:59.705Z,76.80
2018-05-18T03:14:27.937Z,76.60
2018-05-18T03:16:56.204Z,76.80
2018-05-18T03:19:25.218Z,76.70
2018-05-18T03:21:54.212Z,76.80
2018-05-18T03:24:22.449Z,76.80
2018-05-18T03:26:50.781Z,77.80
2018-05-18T03:29:18.989Z,78.50
2018-05-18T03:31:47.981Z,78.50
2018-05-18T03:34:16.213Z,78.50
2018-05-18T03:36:44.452Z,77.50
2018-05-18T03:39:12.766Z,78.50
2018-05-18T03:41:41.765Z,77.80
2018-05-18T03:44:10.776Z,78.40
2018-05-18T03:46:39.897Z,78.20
2018-05-18T03:49:08.145Z,78.10
2018-05-18T03:51:36.362Z,78.50
2018-05-18T03:54:05.358Z,78.40
2018-05-18T03:56:34.349Z,77.80
2018-05-18T03:59:02.649Z,77.80
2018-05-18T04:01:43.490Z,76.70
2018-05-18T04:04:23.576Z,76.60
2018-05-18T04:07:03.814Z,76.60
2018-05-18T04:09:32.043Z,77.20
2018-05-18T04:12:00.294Z,75.40
2018-05-18T04:14:28.541Z,76.70
2018-05-18T04:16:57.522Z,77.70
2018-05-18T04:19:25.844Z,77.60
2018-05-18T04:21:54.879Z,76.00
2018-05-18T04:24:23.161Z,76.00
2018-05-18T04:26:51.409Z,79.50
2018-05-18T04:29:19.638Z,75.80
2018-05-18T04:31:47.898Z,76.40
2018-05-18T04:34:16.907Z,78.20
2018-05-18T04:36:45.913Z,76.20
2018-05-18T04:39:14.925Z,76.80
2018-05-18T04:41:43.909Z,81.90
2018-05-18T04:44:12.153Z,81.90
2018-05-18T04:46:40.396Z,75.80
2018-05-18T04:49:09.415Z,77.40
2018-05-18T04:51:37.648Z,77.30
2018-05-18T04:54:05.890Z,77.50
2018-05-18T04:56:34.896Z,77.20
2018-05-18T04:59:03.877Z,76.70
2018-05-18T05:01:32.101Z,76.70
2018-05-18T05:04:01.304Z,76.50
2018-05-18T05:06:30.302Z,74.60
2018-05-18T05:08:59.295Z,75.20
2018-05-18T05:11:27.522Z,75.20
2018-05-18T05:13:55.758Z,77.00
2018-05-18T05:16:23.984Z,76.90
2018-05-18T05:18:52.219Z,77.00
2018-05-18T05:21:20.437Z,76.70
2018-05-18T05:23:49.428Z,77.20
2018-05-18T05:26:17.673Z,77.10
2018-05-18T05:28:46.013Z,77.70
2018-05-18T05:31:14.365Z,77.00
2018-05-18T05:33:42.684Z,76.40
2018-05-18T05:36:10.910Z,77.00
2018-05-18T05:38:39.792Z,81.30
2018-05-18T05:41:08.862Z,77.20
2018-05-18T05:43:37.792Z,75.50
2018-05-18T05:46:06.051Z,75.60
2018-05-18T05:48:34.274Z,78.50
2018-05-18T05:51:02.884Z,77.80
2018-05-18T05:53:31.069Z,77.80
2018-05-18T05:56:00.057Z,77.90
2018-05-18T05:58:28.306Z,77.90
2018-05-18T06:00:56.521Z,78.70
2018-05-18T06:03:24.740Z,77.30
2018-05-18T06:05:53.747Z,78.30
2018-05-18T06:08:22.746Z,78.70
2018-05-18T06:10:51.753Z,78.70
2018-05-18T06:13:19.984Z,78.70
2018-05-18T06:15:48.237Z,78.70
2018-05-18T06:18:17.229Z,80.00
2018-05-18T06:20:46.252Z,78.30
2018-05-18T06:23:15.263Z,78.70
2018-05-18T06:25:44.283Z,78.50
2018-05-18T06:28:12.616Z,78.50
2018-05-18T06:30:40.849Z,78.20
2018-05-18T06:33:09.095Z,76.40
2018-05-18T06:35:37.301Z,76.20
2018-05-18T06:38:05.546Z,77.60
2018-05-18T06:40:33.780Z,78.50
2018-05-18T06:43:02.783Z,79.00
2018-05-18T06:45:31.790Z,79.00
2018-05-18T06:48:00.018Z,78.90
2018-05-18T06:50:28.238Z,78.50
2018-05-18T06:52:56.464Z,78.20
2018-05-18T06:55:25.465Z,79.40
2018-05-18T06:57:54.517Z,79.90
2018-05-18T07:00:22.713Z,79.70
2018-05-18T07:02:50.979Z,80.50
2018-05-18T07:05:20.122Z,79.10
2018-05-18T07:07:48.346Z,79.60
2018-05-18T07:10:17.344Z,79.50
2018-05-18T07:12:45.572Z,79.30
2018-05-18T07:15:13.815Z,78.60
2018-05-18T07:17:42.065Z,78.20
2018-05-18T07:20:10.302Z,79.10
2018-05-18T07:22:38.533Z,78.00
2018-05-18T07:25:06.753Z,78.70
2018-05-18T07:27:34.988Z,80.60
2018-05-18T07:30:03.230Z,76.10
2018-05-18T07:32:31.521Z,76.30
2018-05-18T07:34:59.740Z,80.00
2018-05-18T07:37:28.739Z,76.90
2018-05-18T07:39:57.740Z,78.10
2018-05-18T07:42:26.725Z,77.50
2018-05-18T07:44:56.449Z,77.30
2018-05-18T07:47:24.677Z,77.20
2018-05-18T07:49:52.924Z,77.10
2018-05-18T07:52:21.168Z,77.80
2018-05-18T07:54:49.417Z,77.60
2018-05-18T07:57:17.651Z,77.90
2018-05-18T07:59:45.878Z,78.00
2018-05-18T08:02:14.138Z,76.90
2018-05-18T08:04:43.170Z,76.60
2018-05-18T08:07:11.422Z,75.30
2018-05-18T08:09:39.652Z,75.90
2018-05-18T08:12:07.911Z,76.00
2018-05-18T08:14:36.126Z,75.50
2018-05-18T08:17:04.369Z,75.30
2018-05-18T08:19:32.586Z,76.60
2018-05-18T08:22:01.096Z,73.70
2018-05-18T08:24:29.308Z,72.70
2018-05-18T08:27:10.267Z,73.90
2018-05-18T08:29:38.501Z,73.80
2018-05-18T08:32:06.719Z,75.70
2018-05-18T08:34:34.961Z,76.10
2018-05-18T08:37:03.995Z,77.90
2018-05-18T08:39:32.216Z,78.10
2018-05-18T08:42:00.446Z,74.40
2018-05-18T08:44:29.467Z,75.00
2018-05-18T08:46:58.433Z,76.00
2018-05-18T08:49:26.659Z,75.80
2018-05-18T08:51:54.941Z,79.00
2018-05-18T08:54:23.163Z,73.30
2018-05-18T08:56:51.385Z,75.20
2018-05-18T08:59:19.701Z,74.10
2018-05-18T09:01:48.734Z,75.60
2018-05-18T09:04:16.993Z,75.60
2018-05-18T09:06:46.024Z,75.60
2018-05-18T09:09:14.276Z,75.60
2018-05-18T09:11:43.296Z,83.80
2018-05-18T09:14:12.683Z,72.00
2018-05-18T09:16:40.902Z,71.90
2018-05-18T09:19:09.902Z,71.50
2018-05-18T09:21:38.914Z,72.80
2018-05-18T09:24:07.923Z,70.60
2018-05-18T09:26:36.906Z,72.10
2018-05-18T09:29:05.117Z,72.40
2018-05-18T09:31:34.115Z,72.50
2018-05-18T09:34:03.267Z,73.80
2018-05-18T09:36:31.374Z,73.60
2018-05-18T09:38:59.633Z,72.80
2018-05-18T09:41:27.857Z,71.80
2018-05-18T09:43:56.081Z,72.30
2018-05-18T09:46:24.303Z,72.80
2018-05-18T09:48:52.641Z,78.70
2018-05-18T09:51:20.901Z,74.50
2018-05-18T09:53:49.243Z,72.10
2018-05-18T09:56:17.484Z,71.40
2018-05-18T09:58:45.732Z,71.60
2018-05-18T10:01:14.832Z,72.50
2018-05-18T10:03:43.812Z,75.00
2018-05-18T10:06:12.848Z,71.10
2018-05-18T10:08:41.101Z,71.10
2018-05-18T10:11:09.957Z,71.60
2018-05-18T10:13:38.198Z,70.50
2018-05-18T10:16:07.196Z,69.30
2018-05-18T10:18:37.152Z,70.80
2018-05-18T10:21:05.376Z,70.80
2018-05-18T10:23:33.628Z,74.80
2018-05-18T10:26:02.688Z,66.80
2018-05-18T10:28:30.913Z,66.70
2018-05-18T10:30:59.904Z,72.50
2018-05-18T10:33:28.925Z,70.40
2018-05-18T10:35:57.909Z,69.80
2018-05-18T10:38:26.241Z,69.80
2018-05-18T10:40:54.459Z,70.70
2018-05-18T10:43:22.692Z,72.30
2018-05-18T10:45:51.722Z,71.30
2018-05-18T10:48:19.965Z,71.10
2018-05-18T10:50:48.189Z,70.00
2018-05-18T10:53:16.486Z,68.20
2018-05-18T10:55:44.734Z,69.50
2018-05-18T10:58:14.494Z,71.60
2018-05-18T11:00:42.796Z,71.50
2018-05-18T11:03:11.081Z,71.70
2018-05-18T11:05:39.637Z,68.50
2018-05-18T11:08:07.941Z,70.70
2018-05-18T11:10:36.924Z,70.50
2018-05-18T11:13:05.151Z,70.50
2018-05-18T11:15:33.373Z,71.60
2018-05-18T11:18:01.606Z,71.80
2018-05-18T11:20:29.892Z,72.80
2018-05-18T11:22:58.897Z,70.60
2018-05-18T11:25:27.193Z,70.50
2018-05-18T11:27:56.217Z,70.90
2018-05-18T11:30:25.197Z,77.10
2018-05-18T11:32:53.416Z,77.30
2018-05-18T11:35:21.659Z,75.70
2018-05-18T11:37:49.861Z,67.50
2018-05-18T11:40:18.098Z,69.30
2018-05-18T11:42:46.456Z,70.30
2018-05-18T11:45:15.566Z,68.60
2018-05-18T11:47:44.686Z,68.20
2018-05-18T11:50:12.920Z,68.20
2018-05-18T11:52:42.208Z,68.50
2018-05-18T11:55:10.450Z,68.70
2018-05-18T11:57:38.759Z,72.50
2018-05-18T12:00:07.758Z,69.40
2018-05-18T12:02:36.753Z,68.50
2018-05-18T12:05:04.997Z,68.40
2018-05-18T12:07:33.237Z,75.40
2018-05-18T12:10:02.256Z,68.30
2018-05-18T12:12:30.494Z,68.30
2018-05-18T12:14:58.961Z,75.40
2018-05-18T12:17:27.195Z,69.80
2018-05-18T12:19:55.473Z,73.50
2018-05-18T12:22:23.744Z,67.10
2018-05-18T12:24:52.033Z,68.00
2018-05-18T12:27:20.311Z,69.40
2018-05-18T12:29:49.660Z,68.10
2018-05-18T12:32:17.917Z,67.80
2018-05-18T12:34:46.187Z,69.70
2018-05-18T12:37:14.425Z,68.30
2018-05-18T12:39:42.673Z,66.60
2018-05-18T12:42:10.901Z,67.30
2018-05-18T12:44:39.168Z,66.30
2018-05-18T12:47:07.380Z,75.80
2018-05-18T12:49:35.585Z,66.20
2018-05-18T12:52:04.613Z,67.50
2018-05-18T12:54:32.873Z,67.50
2018-05-18T12:57:01.149Z,68.90
2018-05-18T12:59:29.462Z,66.80
2018-05-18T13:01:58.294Z,68.50
2018-05-18T13:04:26.510Z,68.00
2018-05-18T13:06:54.758Z,68.40
2018-05-18T13:09:23.735Z,69.10
2018-05-18T13:11:51.975Z,69.10
2018-05-18T13:14:20.188Z,68.80
2018-05-18T13:16:48.428Z,69.20
2018-05-18T13:19:16.658Z,69.20
2018-05-18T13:21:44.896Z,70.50
2018-05-18T13:24:13.117Z,72.70
2018-05-18T13:26:41.374Z,73.10
2018-05-18T13:29:09.618Z,72.70
2018-05-18T13:31:37.850Z,66.50
2018-05-18T13:34:06.870Z,68.10
2018-05-18T13:36:35.197Z,68.50
2018-05-18T13:39:03.423Z,66.20
2018-05-18T13:41:32.417Z,66.00
2018-05-18T13:44:00.642Z,66.00
2018-05-18T13:46:28.898Z,71.50
2018-05-18T13:48:57.899Z,70.70
2018-05-18T13:51:26.884Z,75.00
2018-05-18T13:53:55.177Z,74.90
2018-05-18T13:56:23.407Z,64.50
2018-05-18T13:58:51.654Z,66.80
2018-05-18T14:01:19.938Z,65.30
2018-05-18T14:03:48.156Z,79.00
2018-05-18T14:06:17.166Z,66.30
2018-05-18T14:08:45.394Z,66.30
2018-05-18T14:11:13.626Z,67.80
2018-05-18T14:13:42.629Z,67.80
2018-05-18T14:16:11.622Z,67.20
2018-05-18T14:18:39.933Z,67.10
2018-05-18T14:21:08.135Z,68.00
2018-05-18T14:23:36.362Z,68.30
2018-05-18T14:26:04.609Z,68.00
2018-05-18T14:28:33.617Z,67.40
2018-05-18T14:31:01.852Z,67.40
2018-05-18T14:33:30.080Z,67.30
2018-05-18T14:35:59.082Z,67.10
2018-05-18T14:38:28.083Z,66.40
2018-05-18T14:40:57.094Z,75.30
2018-05-18T14:43:26.087Z,66.20
2018-05-18T14:45:54.333Z,66.00
2018-05-18T14:48:22.561Z,66.10
2018-05-18T14:50:50.774Z,66.00
2018-05-18T14:53:19.822Z,67.40
2018-05-18T14:55:48.015Z,67.40
2018-05-18T14:58:17.037Z,68.30
2018-05-18T15:00:45.261Z,67.40
2018-05-18T15:03:14.251Z,67.40
2018-05-18T15:05:43.322Z,68.30
2018-05-18T15:08:12.258Z,67.50
2018-05-18T15:10:41.358Z,67.50
2018-05-18T15:13:09.633Z,68.00
2018-05-18T15:15:37.886Z,67.50
2018-05-18T15:18:06.113Z,67.30
2018-05-18T15:20:34.346Z,68.30
2018-05-18T15:23:03.772Z,67.30
2018-05-18T15:25:32.729Z,68.10
2018-05-18T15:28:00.949Z,68.10
2018-05-18T15:30:29.176Z,66.10
2018-05-18T15:32:57.405Z,66.00
2018-05-18T15:35:26.498Z,67.00
2018-05-18T15:37:54.680Z,67.00
2018-05-18T15:40:22.901Z,68.00
2018-05-18T15:42:51.909Z,67.20
2018-05-18T15:45:20.906Z,67.30
2018-05-18T15:47:49.928Z,67.10
2018-05-18T15:50:18.908Z,67.40
2018-05-18T15:52:47.126Z,67.40
2018-05-18T15:55:15.358Z,68.90
2018-05-18T15:57:43.630Z,67.20
2018-05-18T16:00:11.884Z,68.00
2018-05-18T16:02:40.126Z,68.20
2018-05-18T16:05:08.357Z,66.30
2018-05-18T16:07:38.163Z,67.40
2018-05-18T16:10:06.429Z,67.40
2018-05-18T16:12:34.706Z,67.60
2018-05-18T16:15:02.971Z,67.60
2018-05-18T16:17:31.234Z,68.30
2018-05-18T16:20:00.221Z,72.30
2018-05-18T16:22:28.454Z,72.10
2018-05-18T16:24:56.680Z,67.80
2018-05-18T16:27:24.899Z,66.80
2018-05-18T16:29:53.889Z,66.90
2018-05-18T16:32:22.132Z,66.70
2018-05-18T16:34:50.354Z,73.00
2018-05-18T16:37:19.397Z,76.90
2018-05-18T16:39:47.624Z,75.20
2018-05-18T16:42:15.860Z,65.40
2018-05-18T16:44:44.845Z,67.50
2018-05-18T16:47:14.579Z,67.10
2018-05-18T16:49:42.805Z,67.00
2018-05-18T16:52:11.873Z,67.20
2018-05-18T16:54:40.130Z,67.30
2018-05-18T16:57:08.361Z,66.60
2018-05-18T16:59:37.350Z,68.60
2018-05-18T17:02:06.382Z,67.70
2018-05-18T17:04:35.392Z,70.10
2018-05-18T17:07:03.639Z,69.90
2018-05-18T17:09:31.857Z,66.80
2018-05-18T17:12:00.906Z,75.50
2018-05-18T17:14:29.238Z,65.30
2018-05-18T17:16:57.425Z,65.90
2018-05-18T17:19:25.662Z,67.00
2018-05-18T17:21:53.917Z,68.80
2018-05-18T17:24:22.138Z,71.30
2018-05-18T17:26:50.356Z,66.20
2018-05-18T17:29:18.589Z,66.50
2018-05-18T17:31:47.578Z,67.10
2018-05-18T17:34:15.801Z,66.90
2018-05-18T17:36:44.027Z,67.30
2018-05-18T17:39:12.250Z,66.00
2018-05-18T17:41:40.477Z,80.10
2018-05-18T17:44:08.718Z,68.40
2018-05-18T17:46:36.943Z,65.20
2018-05-18T17:49:05.161Z,65.60
2018-05-18T17:51:33.486Z,66.20
2018-05-18T17:54:01.701Z,67.10
2018-05-18T17:56:30.680Z,65.40
2018-05-18T17:58:58.916Z,65.30
2018-05-18T18:01:27.195Z,66.60
2018-05-18T18:03:56.229Z,65.30
2018-05-18T18:06:24.453Z,65.30
2018-05-18T18:08:52.680Z,65.20
2018-05-18T18:11:20.921Z,66.80
2018-05-18T18:13:49.144Z,65.40
2018-05-18T18:16:18.120Z,66.30
2018-05-18T18:18:46.349Z,66.30
2018-05-18T18:21:14.560Z,71.90
2018-05-18T18:23:42.837Z,65.20
2018-05-18T18:26:11.090Z,66.90
2018-05-18T18:28:40.138Z,66.50
2018-05-18T18:31:08.290Z,66.40
2018-05-18T18:33:37.288Z,72.20
2018-05-18T18:36:06.267Z,79.40
2018-05-18T18:38:34.499Z,79.30
2018-05-18T18:41:02.750Z,69.00
2018-05-18T18:43:30.961Z,71.60
2018-05-18T18:46:00.036Z,63.80
2018-05-18T18:48:28.348Z,63.80
2018-05-18T18:50:57.341Z,74.40
2018-05-18T18:53:25.636Z,74.40
2018-05-18T18:55:53.885Z,75.80
2018-05-18T18:58:22.102Z,63.10
2018-05-18T19:00:50.317Z,64.40
2018-05-18T19:03:19.311Z,65.30
2018-05-18T19:05:47.518Z,65.30
2018-05-18T19:08:15.798Z,76.70
2018-05-18T19:10:43.965Z,63.30
2018-05-18T19:13:12.195Z,64.70
2018-05-18T19:15:40.425Z,64.40
2018-05-18T19:18:08.658Z,64.10
2018-05-18T19:20:37.108Z,68.40
2018-05-18T19:23:06.086Z,65.10
2018-05-18T19:25:34.338Z,65.10
2018-05-18T19:28:03.325Z,65.70
2018-05-18T19:30:32.340Z,65.60
2018-05-18T19:33:00.564Z,65.50
2018-05-18T19:35:29.553Z,65.60
2018-05-18T19:37:57.821Z,66.00
2018-05-18T19:40:26.830Z,66.60
2018-05-18T19:42:55.820Z,66.50
2018-05-18T19:45:24.039Z,66.40
2018-05-18T19:47:52.273Z,66.50
2018-05-18T19:50:20.495Z,66.40
2018-05-18T19:52:49.484Z,66.70
2018-05-18T19:55:17.704Z,66.50
2018-05-18T19:57:45.927Z,66.80
2018-05-18T20:00:14.210Z,72.30
2018-05-18T20:02:43.182Z,64.50
2018-05-18T20:05:12.181Z,64.50
2018-05-18T20:07:41.184Z,66.20
2018-05-18T20:10:09.408Z,66.10
2018-05-18T20:12:37.679Z,66.60
2018-05-18T20:15:06.845Z,66.80
2018-05-18T20:17:35.056Z,66.80
2018-05-18T20:20:04.057Z,67.00
2018-05-18T20:22:33.064Z,67.20
2018-05-18T20:25:02.153Z,66.70
2018-05-18T20:27:30.352Z,66.40
2018-05-18T20:29:58.586Z,66.60
2018-05-18T20:32:26.818Z,67.30
2018-05-18T20:34:55.048Z,67.00
2018-05-18T20:37:23.292Z,66.50
2018-05-18T20:39:51.508Z,67.60
2018-05-18T20:42:20.496Z,66.40
2018-05-18T20:44:48.725Z,66.40
2018-05-18T20:47:16.941Z,67.10
2018-05-18T20:49:45.169Z,65.90
2018-05-18T20:52:14.179Z,65.90
2018-05-18T20:54:43.175Z,66.20
2018-05-18T20:57:11.395Z,66.20
2018-05-18T20:59:39.618Z,66.40
2018-05-18T21:02:07.842Z,66.30
2018-05-18T21:04:36.833Z,66.90
2018-05-18T21:07:05.070Z,66.10
2018-05-18T21:09:33.319Z,65.70
2018-05-18T21:12:01.539Z,66.40
2018-05-18T21:14:29.753Z,66.20
2018-05-18T21:16:57.998Z,67.10
2018-05-18T21:19:26.989Z,67.00
2018-05-18T21:21:55.208Z,67.00
2018-05-18T21:24:23.421Z,67.50
2018-05-18T21:26:51.644Z,67.70
2018-05-18T21:29:19.947Z,67.60
2018-05-18T21:31:48.953Z,67.50
2018-05-18T21:34:17.942Z,67.40
2018-05-18T21:36:46.158Z,67.40
2018-05-18T21:39:15.148Z,67.20
2018-05-18T21:41:43.378Z,67.20
2018-05-18T21:44:11.592Z,67.60
2018-05-18T21:46:39.824Z,67.60
2018-05-18T21:49:08.824Z,69.10
2018-05-18T21:51:37.813Z,68.80
2018-05-18T21:54:06.053Z,68.60
2018-05-18T21:56:34.305Z,68.50
2018-05-18T21:59:04.342Z,69.00
2018-05-18T22:01:33.422Z,68.90
2018-05-18T22:04:01.603Z,68.80
2018-05-18T22:06:29.858Z,68.40
2018-05-18T22:08:58.810Z,66.80
2018-05-18T22:11:27.038Z,66.70
2018-05-18T22:13:55.292Z,67.40
2018-05-18T22:16:23.493Z,67.70
2018-05-18T22:18:52.478Z,72.80
2018-05-18T22:21:20.711Z,72.40
2018-05-18T22:23:48.932Z,66.60
2018-05-18T22:26:17.153Z,67.40
2018-05-18T22:28:45.381Z,67.40
2018-05-18T22:31:13.618Z,67.40
2018-05-18T22:33:41.833Z,67.90
2018-05-18T22:36:10.057Z,68.30
2018-05-18T22:38:38.386Z,68.50
2018-05-18T22:41:06.609Z,67.90
2018-05-18T22:43:34.850Z,68.60
2018-05-18T22:46:03.084Z,67.90
2018-05-18T22:48:31.324Z,68.30
2018-05-18T22:50:59.541Z,69.40
2018-05-18T22:53:28.537Z,68.30
2018-05-18T22:55:57.525Z,68.00
2018-05-18T22:58:25.753Z,68.00
2018-05-18T23:00:53.965Z,67.10
2018-05-18T23:03:22.203Z,67.50
2018-05-18T23:05:50.415Z,67.30
2018-05-18T23:08:18.654Z,67.70
2018-05-18T23:10:46.872Z,68.40
2018-05-18T23:13:15.862Z,68.50
2018-05-18T23:15:44.089Z,68.50
2018-05-18T23:18:12.316Z,68.80
2018-05-18T23:20:40.556Z,68.40
2018-05-18T23:23:09.553Z,67.40
2018-05-18T23:25:38.633Z,67.90
2018-05-18T23:28:07.660Z,67.30
2018-05-18T23:30:36.645Z,67.50
2018-05-18T23:33:06.407Z,67.10
2018-05-18T23:35:35.475Z,67.10
2018-05-18T23:38:03.714Z,67.70
2018-05-18T23:40:31.929Z,68.40
2018-05-18T23:43:00.161Z,68.90
2018-05-18T23:45:29.156Z,68.70
2018-05-18T23:47:57.382Z,68.70
2018-05-18T23:50:25.621Z,68.80
2018-05-18T23:52:53.846Z,73.20
2018-05-18T23:55:22.069Z,68.40
2018-05-18T23:57:50.295Z,66.00
